Historyczne dane pomiarowe

Dodano dane terminowe – wersja testowa.

Dane z okresu 1951-2019

Wersja bazy: 1.34 [2019-03-16, lista zmian], aktualizacja planowana na 2019-04-15

Dane meteo z obszaru Polski uzyskane na podstawie danych udostępnionych przez Instytut Meteorologii i Gospodarki Wodnej – Państwowy Instytut Badawczy.

 

Wybierz Datę:    

       

TemperaturaWilgotnośćWiatrCiśnienieOpadyŚniegCzas trwania zjawisk
 Stacja t tx tn tng RH VA  wxwx mslp ppp RRR   cm mm wxwxwxwxwxwxwx
1956-11-09 -4.3 -1.0 -9.7-12.2 62.3- 4.3 1.3---- 0.0------------
1956-11-08 -4.4 0.6 -6.9 -9.8 66.8- 1.0 1.0---- 0.0------------
1956-11-07 -1.2 3.2 -3.5 -3.6 71.8- 2.7 2.3---- 0.7------------
1956-11-06 1.2 4.2 -0.3 -1.9 69.8- 3.7 4.0---- 0.0------------
1956-11-05 2.8 5.7 -3.8 -6.5 79.3- 8.0 3.3---- 0.4------------
1956-11-04 -1.2 3.9 -4.6 -9.6 79.5- 0.0 0.3---- 0.0-- 1---------
1956-11-03 -0.1 2.8 -5.0 -7.6 84.8- 5.3 0.7---- 0.4------------
1956-11-02 -0.5 3.8 -3.4 -2.1 84.8- 2.7 0.3---- 0.0------------
1956-11-01 0.1 2.0 -8.4 -8.8 50.3- 8.0 2.7---- 1.2------------
1956-10-31 -6.4 -2.0 -8.7 -9.9 71.0- 0.0 1.0---- 0.0------------
1956-10-30 -0.4 5.6 -2.7 1.4 88.3- 8.0 3.0---- 0.0------------
1956-10-29 5.8 10.7 2.6 0.8 82.8- 4.3 2.7---- 0.0------------
1956-10-28 10.2 10.9 8.8 8.2 94.3- 8.0 2.3---- 6.1------------
1956-10-27 10.0 13.1 7.6 7.3 86.0- 8.0 3.0---- 0.0------------
1956-10-26 8.2 10.2 4.2 0.3 93.5- 7.7 0.3---- 3.0------------
1956-10-25 10.4 17.5 5.1 1.3 82.8- 4.7 2.0---- 0.0------------
1956-10-24 9.7 13.8 4.5 0.4 84.8- 5.3 1.7---- 0.0------------
1956-10-23 9.8 11.7 7.8 8.9 81.3- 7.7 1.7---- 0.0------------
1956-10-22 10.8 13.4 8.7 4.1 87.3- 8.0 1.7---- 0.0------------
1956-10-21 11.7 15.3 5.6 2.6 87.3- 4.3 1.0---- 0.0------------
1956-10-20 8.6 12.9 2.7 -0.3 88.3- 7.3 1.0---- 0.0------------
1956-10-19 9.5 13.4 6.7 7.7 92.0- 7.7 1.3---- 1.0------------
1956-10-18 9.2 12.7 1.9 -1.2 87.3- 7.7 1.0---- 1.4------------
1956-10-17 5.4 12.6 0.0 -1.7 80.3- 2.3 1.3---- 0.0------------
1956-10-16 6.0 10.7 -1.5 -4.0 84.3- 7.7 0.7---- 0.0------------
1956-10-15 4.8 11.7 1.3 -1.7 85.8- 1.3 2.3---- 0.0------------
1956-10-14 7.7 12.1 5.4 4.7 72.0- 3.3 4.0---- 0.0------------
1956-10-13 11.2 13.0 8.0 5.2 68.0- 7.7 6.3---- 6.8------------
1956-10-12 10.0 11.9 8.1 7.6 79.5- 8.0 3.0---- 0.0------------
1956-10-11 8.7 11.9 2.0 1.3 73.8- 8.0 2.7---- 0.0------------
1956-10-10 3.0 9.0 -2.1 -4.8 84.8- 4.7 1.0---- 0.0------------
1956-10-09 6.4 10.1 -0.5 -3.8 87.5- 5.0 1.7---- 1.1------------
1956-10-08 3.9 9.2 1.5 1.5 87.8- 5.0 0.7---- 2.5------------
1956-10-07 7.3 8.3 4.1 3.4 79.3- 8.0 6.3---- 2.2------------
1956-10-06 8.8 10.2 6.4 4.7 93.8- 8.0 1.7---- 45.3------------
1956-10-05 10.4 16.7 7.7 7.2 85.3- 7.0 2.0---- 1.0------------
1956-10-04 9.6 12.2 3.8 0.8 91.8- 8.0 0.3---- 0.3------------
1956-10-03 14.2 20.2 11.2 7.8 80.5- 5.3 2.0---- 0.0------------
1956-10-02 17.1 26.0 8.9 5.6 74.5- 5.7 2.0---- 0.0------------
1956-10-01 13.4 23.1 3.9 1.1 85.5- 2.7 1.0---- 0.0------------
1956-09-30 10.2 17.6 6.6 3.2 88.8- 3.3 1.3---- 0.0------------
1956-09-29 16.9 21.7 11.7 7.9 77.5- 7.7 2.7---- 0.5------------
1956-09-28 13.9 20.4 9.3 5.5 84.5- 4.7 2.0---- 0.0------------
1956-09-27 14.8 24.6 5.3 2.1 71.3- 2.0 1.0---- 0.0------------
1956-09-26 12.9 22.9 4.1 -0.3 73.3- 0.0 1.0---- 0.0------------
1956-09-25 9.8 18.7 2.8 -1.2 78.3- 0.0 2.0---- 0.0------------
1956-09-24 8.4 14.8 2.8 0.1 61.5- 0.0 3.3---- 0.0------------
1956-09-23 10.6 15.8 5.4 1.7 68.3- 4.7 3.7---- 0.0------------
1956-09-22 12.4 19.5 1.8 0.2 73.5- 0.7 2.0---- 0.0------------
1956-09-21 9.4 18.8 2.9 1.2 81.3- 0.0 0.3---- 0.0------------
1956-09-20 9.8 17.6 1.3 -1.3 77.3- 6.7 1.0---- 0.0------------
1956-09-19 6.4 16.3 -1.4 -2.2 83.5- 0.3 0.3---- 0.0------------
1956-09-18 7.0 14.0 3.6 1.8 82.3- 4.0 2.0---- 0.0------------
1956-09-17 9.8 14.8 7.5 5.2 72.0- 3.7 2.7---- 0.0------------
1956-09-16 11.2 13.6 5.2 1.2 73.5- 7.3 3.0---- 0.0------------
1956-09-15 10.2 14.7 3.8 1.5 83.3- 7.0 1.7---- 0.0------------
1956-09-14 9.6 15.5 6.0 3.7 79.0- 4.0 2.0---- 0.0------------
1956-09-13 8.0 14.5 5.9 5.0 86.8- 6.0 2.7---- 2.7------------
1956-09-12 11.0 15.9 8.6 8.4 88.5- 8.0 1.7---- 10.3------------
1956-09-11 13.4 16.5 12.3 11.4 92.0- 5.3 1.7---- 3.3------------
167.3 ms

 

Źródłem pochodzenia danych jest Instytut Meteorologii i Gospodarki Wodnej – Państwowy Instytut Badawczy. Dane Instytutu Meteorologii i Gospodarki Wodnej – Państwowego Instytutu Badawczego zostały przetworzone.

Dane źródłowe można odnaleźć na stronie https://dane.imgw.pl